createdAt,value
2018-03-27T00:00:56.096Z,12.97
2018-03-27T00:03:24.202Z,10.20
2018-03-27T00:05:53.357Z,11.03
2018-03-27T00:08:21.538Z,11.00
2018-03-27T00:10:49.763Z,13.00
2018-03-27T00:13:17.946Z,12.07
2018-03-27T00:15:46.660Z,12.07
2018-03-27T00:18:15.488Z,12.03
2018-03-27T00:20:44.470Z,11.23
2018-03-27T00:23:12.743Z,10.83
2018-03-27T00:25:40.352Z,11.87
2018-03-27T00:28:20.004Z,13.10
2018-03-27T00:30:59.434Z,12.57
2018-03-27T00:33:39.610Z,12.63
2018-03-27T00:36:20.983Z,12.67
2018-03-27T00:39:00.635Z,11.77
2018-03-27T00:44:39.270Z,12.23
2018-03-27T00:47:07.657Z,13.57
2018-03-27T00:49:35.614Z,13.50
2018-03-27T00:52:03.269Z,15.37
2018-03-27T00:54:30.951Z,15.63
2018-03-27T00:56:59.976Z,15.97
2018-03-27T00:59:30.126Z,15.47
2018-03-27T01:01:59.519Z,14.80
2018-03-27T01:04:27.177Z,18.20
2018-03-27T01:06:54.892Z,15.57
2018-03-27T01:09:22.706Z,15.13
2018-03-27T01:11:50.302Z,14.33
2018-03-27T01:14:17.862Z,13.43
2018-03-27T01:16:45.444Z,13.57
2018-03-27T01:19:13.001Z,14.30
2018-03-27T01:21:40.577Z,14.20
2018-03-27T01:24:08.146Z,15.07
2018-03-27T01:26:35.728Z,16.20
2018-03-27T01:29:03.338Z,15.50
2018-03-27T01:31:30.941Z,16.03
2018-03-27T01:33:58.574Z,14.97
2018-03-27T01:36:26.154Z,14.57
2018-03-27T01:38:53.766Z,14.50
2018-03-27T01:41:21.409Z,13.80
2018-03-27T01:43:48.993Z,23.70
2018-03-27T01:46:17.328Z,17.43
2018-03-27T01:48:44.907Z,13.10
2018-03-27T01:51:12.485Z,11.90
2018-03-27T01:53:40.095Z,11.40
2018-03-27T01:56:07.654Z,10.40
2018-03-27T01:58:36.027Z,10.47
2018-03-27T02:01:03.611Z,11.03
2018-03-27T02:03:31.239Z,9.63
2018-03-27T02:05:58.809Z,9.43
2018-03-27T02:08:26.376Z,9.23
2018-03-27T02:10:53.496Z,8.97
2018-03-27T02:13:26.714Z,8.33
2018-03-27T02:15:59.826Z,9.67
2018-03-27T02:18:33.955Z,8.43
2018-03-27T02:21:07.849Z,9.53
2018-03-27T02:23:35.523Z,9.27
2018-03-27T02:26:03.103Z,10.23
2018-03-27T02:28:30.700Z,9.53
2018-03-27T02:30:59.032Z,9.63
2018-03-27T02:33:26.649Z,9.63
2018-03-27T02:35:55.011Z,9.77
2018-03-27T02:38:22.577Z,9.50
2018-03-27T02:40:50.158Z,8.97
2018-03-27T02:43:17.755Z,9.30
2018-03-27T02:45:46.078Z,8.37
2018-03-27T02:48:13.663Z,8.23
2018-03-27T02:50:41.231Z,7.90
2018-03-27T02:53:08.833Z,8.37
2018-03-27T02:55:36.413Z,8.73
2018-03-27T02:58:04.013Z,8.40
2018-03-27T03:00:32.396Z,8.30
2018-03-27T03:02:59.932Z,7.63
2018-03-27T03:05:27.543Z,8.43
2018-03-27T03:07:55.864Z,9.73
2018-03-27T03:10:23.493Z,10.27
2018-03-27T03:12:51.092Z,10.60
2018-03-27T03:15:18.680Z,9.13
2018-03-27T03:17:46.257Z,8.73
2018-03-27T03:20:13.815Z,10.03
2018-03-27T03:22:41.417Z,9.17
2018-03-27T03:25:09.012Z,9.20
2018-03-27T03:27:36.587Z,9.00
2018-03-27T03:30:04.151Z,9.50
2018-03-27T03:32:31.761Z,10.30
2018-03-27T03:35:00.177Z,10.97
2018-03-27T03:37:27.772Z,10.80
2018-03-27T03:39:55.350Z,11.43
2018-03-27T03:42:22.939Z,11.53
2018-03-27T03:44:50.531Z,11.00
2018-03-27T03:47:18.875Z,12.37
2018-03-27T03:49:46.462Z,11.97
2018-03-27T03:52:14.030Z,11.70
2018-03-27T03:54:41.634Z,12.30
2018-03-27T03:57:09.234Z,12.17
2018-03-27T03:59:36.818Z,12.93
2018-03-27T04:02:04.399Z,12.13
2018-03-27T04:04:31.991Z,12.30
2018-03-27T04:06:59.545Z,13.17
2018-03-27T04:09:27.168Z,12.40
2018-03-27T04:11:54.750Z,12.73
2018-03-27T04:14:23.114Z,12.77
2018-03-27T04:16:50.673Z,13.00
2018-03-27T04:19:18.277Z,13.00
2018-03-27T04:21:45.856Z,12.73
2018-03-27T04:24:14.193Z,11.90
2018-03-27T04:26:41.761Z,12.90
2018-03-27T04:29:10.114Z,12.77
2018-03-27T04:31:37.738Z,12.23
2018-03-27T04:34:05.364Z,10.73
2018-03-27T04:36:33.688Z,10.37
2018-03-27T04:39:01.257Z,9.90
2018-03-27T04:41:28.860Z,9.83
2018-03-27T04:43:56.417Z,9.80
2018-03-27T04:46:23.976Z,10.00
2018-03-27T04:48:51.560Z,10.37
2018-03-27T04:51:19.755Z,10.73
2018-03-27T04:53:47.429Z,10.33
2018-03-27T04:56:14.974Z,11.10
2018-03-27T04:58:42.594Z,11.17
2018-03-27T05:01:10.161Z,11.23
2018-03-27T05:03:37.830Z,9.40
2018-03-27T05:06:05.406Z,9.40
2018-03-27T05:08:32.981Z,8.70
2018-03-27T05:11:00.598Z,8.27
2018-03-27T05:13:28.930Z,8.60
2018-03-27T05:15:56.555Z,8.53
2018-03-27T05:18:24.914Z,8.07
2018-03-27T05:20:52.584Z,7.50
2018-03-27T05:23:20.165Z,8.50
2018-03-27T05:25:47.762Z,8.10
2018-03-27T05:28:15.344Z,8.63
2018-03-27T05:30:43.691Z,8.63
2018-03-27T05:33:11.247Z,8.13
2018-03-27T05:35:39.063Z,8.60
2018-03-27T05:38:06.658Z,8.27
2018-03-27T05:40:35.126Z,7.73
2018-03-27T05:43:03.469Z,7.77
2018-03-27T05:45:31.070Z,8.70
2018-03-27T05:47:58.680Z,8.47
2018-03-27T05:50:27.046Z,8.43
2018-03-27T05:52:54.672Z,8.13
2018-03-27T05:55:22.251Z,9.33
2018-03-27T05:57:49.807Z,8.40
2018-03-27T06:00:17.378Z,10.73
2018-03-27T06:02:44.997Z,9.47
2018-03-27T06:05:12.615Z,9.73
2018-03-27T06:07:40.190Z,10.03
2018-03-27T06:10:07.774Z,10.33
2018-03-27T06:12:35.360Z,9.73
2018-03-27T06:15:02.980Z,10.37
2018-03-27T06:17:31.305Z,11.47
2018-03-27T06:19:58.997Z,11.07
2018-03-27T06:22:26.593Z,11.30
2018-03-27T06:24:54.259Z,11.03
2018-03-27T06:27:21.906Z,11.83
2018-03-27T06:29:49.502Z,11.10
2018-03-27T06:32:17.066Z,13.13
2018-03-27T06:34:44.634Z,11.47
2018-03-27T06:37:12.217Z,11.83
2018-03-27T06:39:39.808Z,12.20
2018-03-27T06:42:07.467Z,12.03
2018-03-27T06:44:35.010Z,11.23
2018-03-27T06:47:02.599Z,10.53
2018-03-27T06:49:30.153Z,11.03
2018-03-27T06:51:57.736Z,10.30
2018-03-27T06:54:25.344Z,10.87
2018-03-27T06:56:52.956Z,10.80
2018-03-27T06:59:20.545Z,11.60
2018-03-27T07:01:49.005Z,11.70
2018-03-27T07:04:17.413Z,11.53
2018-03-27T07:08:57.532Z,10.20
2018-03-27T07:11:26.188Z,10.70
2018-03-27T07:13:54.766Z,10.67
2018-03-27T07:16:23.909Z,10.73
2018-03-27T07:18:52.008Z,11.07
2018-03-27T07:21:20.231Z,11.43
2018-03-27T07:23:49.056Z,11.53
2018-03-27T07:26:17.307Z,12.20
2018-03-27T07:28:46.638Z,13.13
2018-03-27T07:31:16.011Z,11.93
2018-03-27T07:33:44.185Z,13.00
2018-03-27T07:36:11.855Z,13.10
2018-03-27T07:38:39.466Z,12.57
2018-03-27T07:41:07.064Z,13.43
2018-03-27T07:43:35.408Z,14.47
2018-03-27T07:46:02.994Z,14.93
2018-03-27T07:48:30.566Z,15.30
2018-03-27T07:50:58.204Z,15.37
2018-03-27T07:53:26.590Z,17.20
2018-03-27T07:55:54.182Z,15.37
2018-03-27T07:58:21.827Z,15.97
2018-03-27T08:00:50.550Z,16.53
2018-03-27T08:03:18.254Z,16.93
2018-03-27T08:05:45.828Z,17.97
2018-03-27T08:08:13.509Z,19.27
2018-03-27T08:10:41.739Z,21.33
2018-03-27T08:13:10.169Z,20.80
2018-03-27T08:15:38.154Z,21.07
2018-03-27T08:18:05.750Z,20.00
2018-03-27T08:20:33.476Z,20.50
2018-03-27T08:23:01.106Z,20.03
2018-03-27T08:25:28.733Z,20.73
2018-03-27T08:27:56.318Z,20.97
2018-03-27T08:30:23.886Z,21.30
2018-03-27T08:32:52.581Z,19.70
2018-03-27T08:35:20.370Z,24.33
2018-03-27T08:37:47.960Z,23.30
2018-03-27T08:40:15.523Z,23.27
2018-03-27T08:42:43.091Z,21.67
2018-03-27T08:45:10.670Z,22.13
2018-03-27T08:47:38.603Z,22.43
2018-03-27T08:50:06.941Z,24.80
2018-03-27T08:52:34.532Z,22.30
2018-03-27T08:55:02.231Z,21.57
2018-03-27T08:57:31.084Z,21.70
2018-03-27T08:59:58.720Z,22.40
2018-03-27T09:02:27.876Z,22.67
2018-03-27T09:04:55.439Z,22.53
2018-03-27T09:07:24.429Z,21.87
2018-03-27T09:09:52.179Z,23.10
2018-03-27T09:12:20.587Z,22.33
2018-03-27T09:14:48.258Z,22.90
2018-03-27T09:17:15.871Z,22.73
2018-03-27T09:19:43.432Z,21.93
2018-03-27T09:22:11.036Z,21.20
2018-03-27T09:24:38.891Z,23.77
2018-03-27T09:27:06.541Z,22.67
2018-03-27T09:29:34.138Z,21.00
2018-03-27T09:32:01.944Z,20.23
2018-03-27T09:34:29.518Z,21.00
2018-03-27T09:36:57.437Z,21.77
2018-03-27T09:39:25.112Z,21.90
2018-03-27T09:41:52.755Z,21.60
2018-03-27T09:44:20.404Z,22.20
2018-03-27T09:46:47.984Z,21.67
2018-03-27T09:49:15.663Z,21.43
2018-03-27T09:51:43.276Z,21.50
2018-03-27T09:54:10.917Z,22.03
2018-03-27T09:56:38.632Z,20.97
2018-03-27T09:59:06.300Z,22.20
2018-03-27T10:01:40.698Z,21.83
2018-03-27T10:04:08.339Z,21.07
2018-03-27T10:06:35.971Z,19.80
2018-03-27T10:09:03.700Z,20.17
2018-03-27T10:11:31.295Z,19.60
2018-03-27T10:13:58.957Z,20.33
2018-03-27T10:16:26.698Z,18.40
2018-03-27T10:18:54.270Z,17.70
2018-03-27T10:21:22.321Z,19.40
2018-03-27T10:23:50.739Z,17.60
2018-03-27T10:26:18.428Z,17.93
2018-03-27T10:28:46.047Z,17.77
2018-03-27T10:31:13.652Z,16.87
2018-03-27T10:33:42.016Z,17.27
2018-03-27T10:36:09.604Z,17.27
2018-03-27T10:38:37.362Z,16.63
2018-03-27T10:41:04.966Z,17.33
2018-03-27T10:43:32.776Z,17.27
2018-03-27T10:46:00.386Z,16.67
2018-03-27T10:48:28.810Z,17.47
2018-03-27T10:50:56.507Z,16.83
2018-03-27T10:53:24.106Z,16.20
2018-03-27T10:55:51.733Z,15.00
2018-03-27T10:58:21.132Z,15.30
2018-03-27T11:00:48.712Z,14.30
2018-03-27T11:03:17.244Z,14.40
2018-03-27T11:05:44.830Z,15.27
2018-03-27T11:08:12.447Z,14.53
2018-03-27T11:10:40.015Z,14.37
2018-03-27T11:13:07.606Z,13.30
2018-03-27T11:15:35.649Z,11.97
2018-03-27T11:18:04.209Z,13.30
2018-03-27T11:20:32.137Z,11.87
2018-03-27T11:23:00.733Z,11.90
2018-03-27T11:25:30.146Z,11.67
2018-03-27T11:27:57.732Z,10.97
2018-03-27T11:30:25.411Z,11.03
2018-03-27T11:32:53.073Z,10.70
2018-03-27T11:35:20.671Z,11.50
2018-03-27T11:37:48.253Z,9.77
2018-03-27T11:40:16.610Z,10.43
2018-03-27T11:42:44.456Z,10.20
2018-03-27T11:45:12.448Z,10.10
2018-03-27T11:47:40.285Z,10.30
2018-03-27T11:50:08.998Z,9.87
2018-03-27T11:52:36.642Z,10.33
2018-03-27T11:55:04.256Z,9.00
2018-03-27T11:57:31.940Z,9.70
2018-03-27T11:59:59.526Z,9.60
2018-03-27T12:02:27.132Z,9.57
2018-03-27T12:04:56.315Z,10.13
2018-03-27T12:07:23.908Z,9.63
2018-03-27T12:09:51.491Z,10.50
2018-03-27T12:12:19.852Z,9.63
2018-03-27T12:14:48.227Z,9.73
2018-03-27T12:17:15.870Z,10.43
2018-03-27T12:19:43.460Z,10.23
2018-03-27T12:22:11.066Z,10.20
2018-03-27T12:24:39.442Z,10.83
2018-03-27T12:27:07.812Z,10.23
2018-03-27T12:29:35.416Z,11.53
2018-03-27T12:32:03.170Z,10.60
2018-03-27T12:34:30.831Z,11.17
2018-03-27T12:36:59.341Z,11.67
2018-03-27T12:39:26.953Z,11.57
2018-03-27T12:41:55.368Z,10.10
2018-03-27T12:44:23.705Z,10.33
2018-03-27T12:46:51.288Z,10.43
2018-03-27T12:49:18.874Z,9.87
2018-03-27T12:51:46.446Z,9.80
2018-03-27T12:54:15.354Z,9.90
2018-03-27T12:56:43.792Z,9.83
2018-03-27T12:59:11.395Z,9.07
2018-03-27T13:01:39.339Z,9.17
2018-03-27T13:04:07.312Z,10.57
2018-03-27T13:06:35.416Z,10.27
2018-03-27T13:09:03.656Z,10.27
2018-03-27T13:11:31.355Z,10.67
2018-03-27T13:13:59.431Z,10.27
2018-03-27T13:16:27.066Z,10.93
2018-03-27T13:18:54.636Z,10.77
2018-03-27T13:21:23.129Z,10.30
2018-03-27T13:23:51.836Z,10.87
2018-03-27T13:26:20.738Z,11.37
2018-03-27T13:28:48.778Z,10.20
2018-03-27T13:31:17.835Z,11.30
2018-03-27T13:33:46.765Z,10.13
2018-03-27T13:36:14.946Z,11.03
2018-03-27T13:38:44.978Z,10.67
2018-03-27T13:41:14.514Z,11.10
2018-03-27T13:43:43.362Z,10.20
2018-03-27T13:46:11.701Z,10.40
2018-03-27T13:48:39.710Z,10.07
2018-03-27T13:51:08.664Z,10.47
2018-03-27T13:53:36.913Z,11.20
2018-03-27T13:56:06.384Z,10.93
2018-03-27T13:58:35.498Z,11.03
2018-03-27T14:01:05.784Z,10.67
2018-03-27T14:03:33.673Z,11.47
2018-03-27T14:06:01.299Z,10.77
2018-03-27T14:08:29.678Z,10.53
2018-03-27T14:10:57.774Z,10.50
2018-03-27T14:13:26.042Z,11.53
2018-03-27T14:15:55.984Z,11.33
2018-03-27T14:18:25.580Z,11.53
2018-03-27T14:20:53.754Z,11.97
2018-03-27T14:23:22.841Z,12.87
2018-03-27T14:25:52.407Z,12.73
2018-03-27T14:28:20.812Z,12.10
2018-03-27T14:30:50.093Z,12.37
2018-03-27T14:33:19.845Z,13.53
2018-03-27T14:35:47.505Z,15.47
2018-03-27T14:38:15.122Z,14.87
2018-03-27T14:40:42.714Z,15.03
2018-03-27T14:43:10.712Z,15.80
2018-03-27T14:45:39.610Z,15.57
2018-03-27T14:48:08.588Z,15.07
2018-03-27T14:50:38.536Z,15.37
2018-03-27T14:53:06.548Z,15.70
2018-03-27T14:55:34.784Z,16.70
2018-03-27T14:58:03.774Z,16.33
2018-03-27T15:00:32.117Z,17.83
2018-03-27T15:03:01.127Z,18.63
2018-03-27T15:05:29.332Z,18.03
2018-03-27T15:07:59.148Z,17.47
2018-03-27T15:10:27.978Z,18.10
2018-03-27T15:12:57.082Z,17.60
2018-03-27T15:15:25.209Z,17.53
2018-03-27T15:17:53.216Z,17.10
2018-03-27T15:20:23.204Z,18.53
2018-03-27T15:22:51.228Z,19.03
2018-03-27T15:25:19.020Z,18.13
2018-03-27T15:27:47.661Z,17.60
2018-03-27T15:30:15.284Z,18.77
2018-03-27T15:32:42.887Z,18.67
2018-03-27T15:35:12.115Z,18.37
2018-03-27T15:37:40.383Z,18.97
2018-03-27T15:40:09.390Z,20.20
2018-03-27T15:42:37.055Z,18.53
2018-03-27T15:45:04.660Z,18.70
2018-03-27T15:47:32.687Z,18.47
2018-03-27T15:50:00.312Z,17.70
2018-03-27T15:52:27.983Z,17.63
2018-03-27T15:54:56.643Z,17.27
2018-03-27T15:57:25.039Z,18.13
2018-03-27T15:59:52.722Z,18.70
2018-03-27T16:02:20.314Z,19.03
2018-03-27T16:04:48.685Z,16.27
2018-03-27T16:07:16.314Z,18.10
2018-03-27T16:09:44.139Z,17.07
2018-03-27T16:12:12.494Z,16.60
2018-03-27T16:14:40.342Z,16.40
2018-03-27T16:17:09.295Z,16.70
2018-03-27T16:19:36.863Z,16.00
2018-03-27T16:22:04.464Z,15.83
2018-03-27T16:24:32.854Z,15.37
2018-03-27T16:27:02.085Z,16.07
2018-03-27T16:29:29.675Z,16.37
2018-03-27T16:31:57.379Z,15.97
2018-03-27T16:34:24.992Z,16.33
2018-03-27T16:36:53.486Z,16.93
2018-03-27T16:39:21.069Z,16.97
2018-03-27T16:41:48.652Z,19.03
2018-03-27T16:44:16.292Z,17.17
2018-03-27T16:46:43.928Z,16.73
2018-03-27T16:49:11.508Z,18.17
2018-03-27T16:51:39.269Z,18.13
2018-03-27T16:54:06.899Z,18.23
2018-03-27T16:56:35.334Z,18.70
2018-03-27T16:59:02.934Z,18.60
2018-03-27T17:01:30.567Z,17.67
2018-03-27T17:03:58.211Z,19.20
2018-03-27T17:06:26.586Z,18.70
2018-03-27T17:08:54.943Z,18.83
2018-03-27T17:11:22.620Z,19.23
2018-03-27T17:13:50.257Z,18.27
2018-03-27T17:16:17.848Z,18.17
2018-03-27T17:18:45.554Z,19.30
2018-03-27T17:21:13.155Z,18.30
2018-03-27T17:23:40.965Z,25.77
2018-03-27T17:26:08.592Z,23.27
2018-03-27T17:28:37.058Z,20.57
2018-03-27T17:31:04.686Z,21.73
2018-03-27T17:33:32.319Z,21.90
2018-03-27T17:35:59.936Z,22.23
2018-03-27T17:38:27.555Z,21.07
2018-03-27T17:40:55.125Z,22.50
2018-03-27T17:43:22.790Z,21.90
2018-03-27T17:45:50.497Z,19.53
2018-03-27T17:48:18.097Z,19.93
2018-03-27T17:50:45.943Z,19.73
2018-03-27T17:53:14.379Z,20.57
2018-03-27T17:55:42.325Z,20.47
2018-03-27T17:58:10.027Z,19.00
2018-03-27T18:00:38.206Z,18.87
2018-03-27T18:03:06.388Z,18.50
2018-03-27T18:05:34.607Z,19.23
2018-03-27T18:08:04.648Z,19.27
2018-03-27T18:10:33.451Z,18.00
2018-03-27T18:13:02.383Z,18.60
2018-03-27T18:15:31.508Z,17.70
2018-03-27T18:18:00.095Z,19.57
2018-03-27T18:20:28.359Z,19.27
2018-03-27T18:22:58.107Z,20.27
2018-03-27T18:25:25.748Z,20.20
2018-03-27T18:27:54.112Z,19.70
2018-03-27T18:30:22.220Z,19.40
2018-03-27T18:32:50.637Z,19.63
2018-03-27T18:35:18.240Z,19.07
2018-03-27T18:37:46.577Z,20.67
2018-03-27T18:40:15.683Z,19.93
2018-03-27T18:42:43.328Z,21.60
2018-03-27T18:45:10.925Z,19.67
2018-03-27T18:47:38.993Z,20.63
2018-03-27T18:50:06.576Z,20.50
2018-03-27T18:52:34.152Z,21.07
2018-03-27T18:55:01.832Z,20.37
2018-03-27T18:57:29.531Z,21.57
2018-03-27T18:59:57.488Z,19.87
2018-03-27T19:02:25.340Z,21.77
2018-03-27T19:04:53.021Z,21.57
2018-03-27T19:07:20.639Z,21.83
2018-03-27T19:09:48.261Z,21.77
2018-03-27T19:12:15.850Z,22.93
2018-03-27T19:14:43.425Z,22.03
2018-03-27T19:17:11.053Z,20.20
2018-03-27T19:19:40.374Z,20.90
2018-03-27T19:22:08.115Z,19.93
2018-03-27T19:24:35.700Z,19.20
2018-03-27T19:27:03.285Z,21.70
2018-03-27T19:29:31.690Z,21.00
2018-03-27T19:32:00.052Z,19.90
2018-03-27T19:34:27.622Z,20.87
2018-03-27T19:36:55.187Z,20.50
2018-03-27T19:39:22.760Z,20.53
2018-03-27T19:41:50.324Z,21.60
2018-03-27T19:44:17.934Z,26.70
2018-03-27T19:46:46.267Z,22.83
2018-03-27T19:49:13.910Z,22.07
2018-03-27T19:51:41.508Z,20.43
2018-03-27T19:54:09.136Z,21.40
2018-03-27T19:56:37.534Z,20.77
2018-03-27T19:59:05.950Z,21.40
2018-03-27T20:01:33.560Z,21.43
2018-03-27T20:04:01.916Z,20.00
2018-03-27T20:06:29.500Z,20.37
2018-03-27T20:08:57.592Z,19.73
2018-03-27T20:11:34.843Z,19.97
2018-03-27T20:14:02.643Z,20.10
2018-03-27T20:16:31.174Z,19.53
2018-03-27T20:18:59.119Z,19.50
2018-03-27T20:21:27.090Z,20.20
2018-03-27T20:23:54.863Z,19.17
2018-03-27T20:26:22.907Z,20.43
2018-03-27T20:28:51.412Z,20.00
2018-03-27T20:31:21.075Z,20.23
2018-03-27T20:33:50.059Z,21.20
2018-03-27T20:36:18.880Z,20.47
2018-03-27T20:38:46.803Z,18.93
2018-03-27T20:41:16.458Z,20.13
2018-03-27T20:43:44.140Z,19.33
2018-03-27T20:46:12.508Z,19.23
2018-03-27T20:48:40.106Z,20.20
2018-03-27T20:51:08.538Z,18.07
2018-03-27T20:53:36.197Z,15.63
2018-03-27T20:56:03.790Z,17.10
2018-03-27T20:58:31.418Z,16.97
2018-03-27T21:00:59.750Z,17.63
2018-03-27T21:03:27.342Z,17.33
2018-03-27T21:05:54.997Z,17.77
2018-03-27T21:08:22.756Z,17.83
2018-03-27T21:10:50.343Z,16.33
2018-03-27T21:13:17.915Z,16.53
2018-03-27T21:15:45.488Z,16.53
2018-03-27T21:18:13.112Z,18.30
2018-03-27T21:20:40.739Z,16.80
2018-03-27T21:23:08.359Z,17.07
2018-03-27T21:25:35.986Z,16.73
2018-03-27T21:28:03.642Z,19.07
2018-03-27T21:30:31.242Z,17.37
2018-03-27T21:32:58.870Z,18.30
2018-03-27T21:35:27.802Z,18.37
2018-03-27T21:37:55.423Z,18.20
2018-03-27T21:40:23.846Z,19.63
2018-03-27T21:42:51.530Z,20.23
2018-03-27T21:45:19.186Z,19.73
2018-03-27T21:47:46.820Z,20.73
2018-03-27T21:50:14.425Z,19.83
2018-03-27T21:52:42.823Z,20.50
2018-03-27T21:55:10.548Z,21.10
2018-03-27T21:57:38.414Z,21.63
2018-03-27T22:00:06.782Z,23.90
2018-03-27T22:02:34.435Z,21.90
2018-03-27T22:05:03.350Z,21.40
2018-03-27T22:07:31.116Z,20.57
2018-03-27T22:10:00.150Z,21.23
2018-03-27T22:12:27.864Z,20.60
2018-03-27T22:14:56.348Z,19.00
2018-03-27T22:17:24.003Z,19.37
2018-03-27T22:19:51.658Z,19.00
2018-03-27T22:22:19.316Z,18.67
2018-03-27T22:24:47.059Z,18.73
2018-03-27T22:27:14.688Z,19.90
2018-03-27T22:29:42.257Z,20.03
2018-03-27T22:32:09.823Z,18.80
2018-03-27T22:34:37.491Z,18.63
2018-03-27T22:37:05.157Z,19.97
2018-03-27T22:39:32.752Z,19.20
2018-03-27T22:42:00.325Z,19.10
2018-03-27T22:44:27.888Z,20.20
2018-03-27T22:46:55.479Z,18.80
2018-03-27T22:49:23.361Z,18.30
2018-03-27T22:51:51.532Z,18.30
2018-03-27T22:54:19.217Z,18.90
2018-03-27T22:56:46.864Z,18.90
2018-03-27T22:59:14.458Z,18.97
2018-03-27T23:01:42.051Z,17.77
2018-03-27T23:04:09.639Z,16.67
2018-03-27T23:06:37.256Z,17.43
2018-03-27T23:09:04.839Z,16.80
2018-03-27T23:11:32.495Z,18.40
2018-03-27T23:14:00.816Z,17.63
2018-03-27T23:16:28.497Z,16.67
2018-03-27T23:18:56.092Z,16.73
2018-03-27T23:21:23.799Z,15.77
2018-03-27T23:23:51.452Z,16.10
2018-03-27T23:26:19.806Z,17.07
2018-03-27T23:28:47.378Z,15.43
2018-03-27T23:31:14.984Z,15.27
2018-03-27T23:33:42.624Z,16.17
2018-03-27T23:36:11.021Z,15.67
2018-03-27T23:38:39.531Z,15.70
2018-03-27T23:41:07.103Z,16.13
2018-03-27T23:43:34.692Z,15.57
2018-03-27T23:46:02.282Z,16.20
2018-03-27T23:48:30.639Z,15.73
2018-03-27T23:50:58.263Z,16.07
2018-03-27T23:53:25.869Z,15.30
2018-03-27T23:55:53.478Z,16.47
2018-03-27T23:58:21.079Z,16.23
